Time;durP1;ratioP1;P1;durP2;ratioP2;P2;SDS_P1;SDS_P2;PMS_P1;PMS_P2;Temp;Humidity;BMP_temperature;BMP_pressure;BME280_temperature;BME280_humidity;BME280_pressure;Samples;Min_cycle;Max_cycle;Signal;HPM_P1;HPM_P2
2021/11/07 00:03:07;;;;;;;0.50;0.50;;;;;;;8.99;59.58;100875.38;111170;1196;95799;-75
2021/11/07 00:05:41;;;;;;;0.50;0.40;;;;;;;8.91;59.77;100870.51;111430;1193;138270;-76
2021/11/07 00:10:41;;;;;;;0.50;0.40;;;;;;;8.87;59.85;100868.08;111624;1193;95266;-76
2021/11/07 00:13:28;;;;;;;0.50;0.40;;;;;;;8.81;60.10;100862.66;111762;1192;139503;-76
2021/11/07 00:16:00;;;;;;;0.50;0.50;;;;;;;8.69;60.09;100860.67;111606;1193;107291;-75
2021/11/07 00:18:36;;;;;;;0.50;0.40;;;;;;;8.69;60.29;100850.77;111801;1192;138431;-77
2021/11/07 00:21:09;;;;;;;0.40;0.40;;;;;;;8.67;60.25;100852.02;111717;1193;95001;-76
2021/11/07 00:24:23;;;;;;;0.60;0.60;;;;;;;8.67;60.25;100847.39;111695;1192;138557;-76
2021/11/07 00:26:33;;;;;;;0.50;0.50;;;;;;;8.63;60.25;100849.05;111759;1193;108585;-75
2021/11/07 00:29:11;;;;;;;0.50;0.50;;;;;;;8.61;60.47;100844.98;111668;1193;109002;-75
2021/11/07 00:32:22;;;;;;;0.40;0.40;;;;;;;8.59;60.56;100843.96;111514;1192;138199;-76
2021/11/07 00:35:06;;;;;;;0.50;0.50;;;;;;;8.55;60.72;100839.23;111863;1192;95450;-76
2021/11/07 00:37:52;;;;;;;0.50;0.50;;;;;;;8.46;60.78;100829.23;111706;1192;139138;-76
2021/11/07 00:43:02;;;;;;;0.50;0.40;;;;;;;8.48;60.76;100829.93;111728;1192;138657;-76
2021/11/07 00:45:48;;;;;;;0.40;0.40;;;;;;;8.48;60.51;100824.79;111597;1193;95054;-76
2021/11/07 00:48:26;;;;;;;0.50;0.50;;;;;;;8.44;60.80;100826.40;111474;1193;140194;-76
2021/11/07 00:51:06;;;;;;;0.50;0.50;;;;;;;8.36;60.97;100828.60;111843;1192;108529;-75
2021/11/07 00:56:27;;;;;;;0.50;0.40;;;;;;;8.34;61.11;100824.72;111860;1192;94911;-75
2021/11/07 00:59:05;;;;;;;0.50;0.50;;;;;;;8.30;61.00;100820.52;112087;1192;108595;-76
2021/11/07 01:01:37;;;;;;;0.50;0.50;;;;;;;8.28;61.20;100818.06;111758;1192;137885;-75
2021/11/07 01:04:07;;;;;;;0.50;0.50;;;;;;;8.28;61.09;100815.42;111828;1195;94992;-77
2021/11/07 01:06:35;;;;;;;0.60;0.60;;;;;;;8.32;61.05;100813.80;111639;1192;138076;-75
2021/11/07 01:09:03;;;;;;;0.50;0.50;;;;;;;8.29;61.27;100814.88;111894;1192;107953;-78
2021/11/07 01:11:31;;;;;;;0.50;0.40;;;;;;;8.28;61.15;100808.50;111551;1192;137832;-76
2021/11/07 01:13:59;;;;;;;0.50;0.50;;;;;;;8.21;61.52;100805.23;111908;1192;96040;-76
2021/11/07 01:16:27;;;;;;;0.50;0.50;;;;;;;8.15;61.68;100795.91;111922;1192;94862;-76
2021/11/07 01:18:54;;;;;;;0.50;0.40;;;;;;;8.09;61.63;100787.48;111804;1192;139505;-77
2021/11/07 01:21:23;;;;;;;0.50;0.50;;;;;;;8.03;61.90;100786.30;111855;1192;109417;-76
2021/11/07 01:23:57;;;;;;;0.50;0.50;;;;;;;8.03;61.93;100780.98;111550;1193;137843;-76
2021/11/07 01:26:30;;;;;;;0.50;0.50;;;;;;;8.02;62.02;100781.71;111673;1193;94873;-78
2021/11/07 01:29:05;;;;;;;0.60;0.60;;;;;;;7.97;61.66;100768.32;111939;1192;108507;-75
2021/11/07 01:31:34;;;;;;;0.60;0.60;;;;;;;8.03;61.93;100768.08;111756;1192;138423;-76
2021/11/07 01:34:04;;;;;;;0.50;0.50;;;;;;;8.00;61.92;100755.56;111953;1192;94884;-76
2021/11/07 01:39:33;;;;;;;0.50;0.50;;;;;;;8.04;62.00;100757.80;111510;1192;108889;-76
2021/11/07 01:42:07;;;;;;;0.50;0.50;;;;;;;8.06;61.75;100757.10;111604;1193;139100;-76
2021/11/07 01:44:45;;;;;;;0.50;0.50;;;;;;;8.06;61.72;100748.95;111861;1192;94947;-75
2021/11/07 01:47:16;;;;;;;0.50;0.50;;;;;;;8.02;61.62;100750.93;112022;1193;94896;-76
2021/11/07 01:49:44;;;;;;;0.60;0.60;;;;;;;7.93;61.49;100751.73;111804;1192;137882;-76
2021/11/07 01:52:13;;;;;;;0.50;0.50;;;;;;;7.87;61.75;100747.55;111439;1193;108453;-76
2021/11/07 01:57:22;;;;;;;0.50;0.50;;;;;;;7.84;61.76;100738.37;111874;1192;94867;-76
2021/11/07 01:59:54;;;;;;;0.50;0.50;;;;;;;7.81;61.74;100731.52;111953;1192;137969;-76
2021/11/07 02:02:26;;;;;;;0.50;0.50;;;;;;;7.87;61.70;100728.81;112020;1192;109511;-76
2021/11/07 02:04:54;;;;;;;0.50;0.50;;;;;;;7.86;61.67;100721.22;111875;1193;96378;-76
2021/11/07 02:07:23;;;;;;;0.60;0.60;;;;;;;7.84;61.46;100718.05;111986;1192;138684;-76
2021/11/07 02:09:51;;;;;;;0.50;0.50;;;;;;;7.80;61.49;100720.92;111925;1192;108052;-74
2021/11/07 02:12:19;;;;;;;0.60;0.60;;;;;;;7.75;61.42;100717.61;111876;1192;139263;-76
2021/11/07 02:14:47;;;;;;;0.50;0.50;;;;;;;7.76;61.61;100710.19;111937;1192;95414;-76
2021/11/07 02:17:15;;;;;;;0.50;0.50;;;;;;;7.81;61.44;100707.30;111653;1193;94822;-75
2021/11/07 02:19:44;;;;;;;0.50;0.50;;;;;;;7.83;61.12;100704.99;111843;1192;137332;-75
2021/11/07 02:22:13;;;;;;;0.50;0.50;;;;;;;7.76;61.22;100698.52;112283;1192;109417;-76
2021/11/07 02:24:41;;;;;;;0.60;0.60;;;;;;;7.73;61.36;100693.77;111496;1193;138400;-76
2021/11/07 02:27:10;;;;;;;0.50;0.50;;;;;;;7.71;61.56;100690.79;111820;1193;95022;-75
2021/11/07 02:29:38;;;;;;;0.50;0.50;;;;;;;7.69;61.57;100684.96;111591;1193;137983;-77
2021/11/07 02:32:06;;;;;;;0.50;0.50;;;;;;;7.69;61.66;100673.48;111982;1192;109579;-77
2021/11/07 02:34:34;;;;;;;0.50;0.50;;;;;;;7.70;61.57;100669.59;111626;1192;95168;-76
2021/11/07 02:37:02;;;;;;;0.60;0.60;;;;;;;7.76;61.44;100665.28;111879;1192;139659;-76
2021/11/07 02:39:30;;;;;;;0.50;0.50;;;;;;;7.79;61.31;100660.65;111922;1192;108288;-77
2021/11/07 02:41:59;;;;;;;0.50;0.50;;;;;;;7.77;61.00;100658.75;111668;1192;136828;-75
2021/11/07 02:44:32;;;;;;;0.60;0.60;;;;;;;7.70;61.36;100658.63;112450;1192;95815;-76
2021/11/07 02:47:06;;;;;;;0.70;0.70;;;;;;;7.73;61.25;100659.83;111834;1193;95826;-77
2021/11/07 02:49:35;;;;;;;0.50;0.50;;;;;;;7.69;61.07;100659.86;111738;1192;138497;-76
2021/11/07 02:52:05;;;;;;;0.50;0.50;;;;;;;7.62;61.22;100661.19;111908;1192;108440;-76
2021/11/07 02:54:34;;;;;;;0.60;0.60;;;;;;;7.57;61.29;100652.05;112413;1192;138656;-78
2021/11/07 02:57:04;;;;;;;0.60;0.60;;;;;;;7.53;61.44;100649.42;111728;1193;95888;-76
2021/11/07 02:59:36;;;;;;;0.60;0.60;;;;;;;7.55;61.44;100646.94;111582;1193;137783;-77
2021/11/07 03:02:05;;;;;;;0.60;0.60;;;;;;;7.54;61.14;100651.19;112052;1192;109722;-76
2021/11/07 03:04:34;;;;;;;0.60;0.60;;;;;;;7.52;61.16;100648.20;112343;1192;95040;-76
2021/11/07 03:07:04;;;;;;;0.60;0.60;;;;;;;7.47;61.28;100645.42;111691;1192;139061;-75
2021/11/07 03:09:35;;;;;;;0.60;0.60;;;;;;;7.34;61.55;100645.54;112040;1193;107573;-76
2021/11/07 03:12:04;;;;;;;0.60;0.60;;;;;;;7.29;61.61;100641.19;111837;1192;138672;-75
2021/11/07 03:14:38;;;;;;;0.50;0.50;;;;;;;7.26;61.62;100632.90;111939;1192;95364;-75
2021/11/07 03:17:07;;;;;;;0.60;0.60;;;;;;;7.21;61.62;100625.70;111803;1192;96137;-76
2021/11/07 03:19:35;;;;;;;0.60;0.60;;;;;;;7.10;61.79;100615.21;111771;1192;138122;-76
2021/11/07 03:22:08;;;;;;;0.60;0.60;;;;;;;7.06;61.94;100615.06;112605;1192;108962;-75
2021/11/07 03:24:37;;;;;;;0.50;0.50;;;;;;;7.04;61.92;100612.43;111826;1192;140218;-76
2021/11/07 03:27:18;;;;;;;0.60;0.60;;;;;;;7.04;62.13;100610.32;111675;1192;95951;-75
2021/11/07 03:29:52;;;;;;;0.60;0.60;;;;;;;7.02;61.87;100615.27;111621;1195;139978;-76
2021/11/07 03:32:27;;;;;;;0.60;0.60;;;;;;;7.04;61.70;100607.32;111645;1195;108395;-76
2021/11/07 03:34:57;;;;;;;0.60;0.60;;;;;;;7.02;61.86;100591.08;111980;1192;94889;-76
2021/11/07 03:37:29;;;;;;;0.60;0.60;;;;;;;6.98;61.80;100585.30;111607;1192;139182;-76
2021/11/07 03:39:59;;;;;;;0.50;0.50;;;;;;;6.97;61.88;100584.07;111698;1193;107700;-75
2021/11/07 03:42:28;;;;;;;0.70;0.70;;;;;;;6.92;61.76;100581.98;111844;1192;137285;-76
2021/11/07 03:44:55;;;;;;;0.60;0.60;;;;;;;6.98;62.01;100576.83;111948;1192;95075;-76
2021/11/07 03:47:23;;;;;;;0.60;0.60;;;;;;;7.03;61.68;100568.48;111562;1192;139187;-76
2021/11/07 03:49:53;;;;;;;0.60;0.60;;;;;;;7.01;61.67;100571.14;111904;1192;106839;-76
2021/11/07 03:52:21;;;;;;;0.60;0.60;;;;;;;6.98;61.58;100563.40;111938;1192;109121;-77
2021/11/07 03:54:49;;;;;;;0.80;0.80;;;;;;;6.90;61.76;100553.06;111945;1193;139121;-77
2021/11/07 03:57:17;;;;;;;0.60;0.60;;;;;;;6.89;61.87;100544.61;111953;1192;94983;-76
2021/11/07 03:59:48;;;;;;;0.60;0.60;;;;;;;6.93;62.03;100543.14;111774;1192;139500;-76
2021/11/07 04:02:18;;;;;;;0.70;0.70;;;;;;;6.94;61.92;100545.61;111867;1192;108464;-76
2021/11/07 04:04:45;;;;;;;0.60;0.60;;;;;;;6.89;61.76;100541.06;111743;1193;96190;-76
2021/11/07 04:07:14;;;;;;;0.60;0.60;;;;;;;6.87;61.82;100536.49;111552;1192;137889;-77
2021/11/07 04:09:43;;;;;;;0.60;0.60;;;;;;;6.83;61.88;100533.70;111939;1192;108252;-76
2021/11/07 04:12:10;;;;;;;0.60;0.60;;;;;;;6.76;62.02;100526.01;111871;1192;137696;-76
2021/11/07 04:14:38;;;;;;;0.60;0.60;;;;;;;6.66;62.18;100522.04;111701;1193;94921;-77
2021/11/07 04:17:07;;;;;;;0.70;0.70;;;;;;;6.59;62.61;100516.09;111830;1192;94905;-76
2021/11/07 04:19:35;;;;;;;0.60;0.60;;;;;;;6.56;62.75;100518.41;111711;1193;138535;-76
2021/11/07 04:22:06;;;;;;;0.60;0.60;;;;;;;6.55;62.70;100520.35;111861;1192;109073;-76
2021/11/07 04:24:34;;;;;;;0.50;0.50;;;;;;;6.56;62.98;100525.29;112199;1192;138004;-76
2021/11/07 04:27:03;;;;;;;0.60;0.60;;;;;;;6.57;62.89;100530.39;111736;1192;95345;-76
2021/11/07 04:29:31;;;;;;;0.70;0.70;;;;;;;6.58;62.86;100529.86;111618;1192;138225;-77
2021/11/07 04:31:59;;;;;;;0.60;0.60;;;;;;;6.63;62.62;100526.65;112075;1192;106090;-76
2021/11/07 04:34:27;;;;;;;0.60;0.60;;;;;;;6.58;62.64;100523.51;111953;1192;94912;-77
2021/11/07 04:36:56;;;;;;;0.70;0.70;;;;;;;6.53;62.69;100526.20;111637;1192;138412;-76
2021/11/07 04:39:25;;;;;;;0.60;0.60;;;;;;;6.51;62.94;100528.67;111740;1193;107524;-76
2021/11/07 04:41:57;;;;;;;0.70;0.70;;;;;;;6.53;62.82;100514.90;112709;1192;139160;-76
2021/11/07 04:44:25;;;;;;;0.60;0.60;;;;;;;6.53;62.74;100512.61;111679;1195;95347;-77
2021/11/07 04:46:54;;;;;;;0.60;0.60;;;;;;;6.58;62.83;100512.74;112007;1192;94878;-77
2021/11/07 04:49:22;;;;;;;0.70;0.70;;;;;;;6.56;62.67;100508.52;111898;1192;137738;-76
2021/11/07 04:51:49;;;;;;;0.70;0.70;;;;;;;6.50;62.89;100500.45;111935;1192;107992;-75
2021/11/07 04:54:18;;;;;;;0.60;0.60;;;;;;;6.53;62.75;100497.61;111845;1192;138456;-75
2021/11/07 04:56:46;;;;;;;0.60;0.60;;;;;;;6.47;63.04;100488.31;112051;1192;95275;-76
2021/11/07 04:59:13;;;;;;;0.60;0.60;;;;;;;6.45;63.03;100487.09;111684;1193;107610;-76
2021/11/07 05:01:42;;;;;;;0.60;0.60;;;;;;;6.41;63.12;100485.02;111865;1192;139703;-76
2021/11/07 05:04:09;;;;;;;0.70;0.70;;;;;;;6.37;63.05;100481.15;111900;1192;95137;-77
2021/11/07 05:06:37;;;;;;;0.60;0.60;;;;;;;6.36;63.25;100477.45;111580;1192;138913;-76
2021/11/07 05:09:05;;;;;;;0.60;0.60;;;;;;;6.30;63.53;100472.57;111709;1192;109102;-77
2021/11/07 05:11:35;;;;;;;0.70;0.70;;;;;;;6.24;63.53;100470.34;111858;1192;139679;-77
2021/11/07 05:14:02;;;;;;;0.70;0.70;;;;;;;6.17;63.81;100466.33;111727;1193;94830;-75
2021/11/07 05:16:30;;;;;;;0.70;0.70;;;;;;;6.12;63.95;100465.83;111962;1192;95786;-76
2021/11/07 05:18:58;;;;;;;0.70;0.70;;;;;;;6.06;64.23;100463.59;111735;1192;138305;-76
2021/11/07 05:21:26;;;;;;;0.70;0.70;;;;;;;6.00;64.26;100461.86;111887;1192;108157;-77
2021/11/07 05:23:58;;;;;;;0.80;0.80;;;;;;;5.97;64.44;100450.94;111629;1193;139536;-76
2021/11/07 05:26:26;;;;;;;0.70;0.70;;;;;;;5.97;64.42;100441.58;111676;1193;95523;-76
2021/11/07 05:28:54;;;;;;;0.70;0.70;;;;;;;5.97;64.56;100441.77;111919;1192;108288;-77
2021/11/07 05:31:22;;;;;;;0.80;0.80;;;;;;;5.91;64.68;100440.55;111768;1192;138751;-76
2021/11/07 05:33:51;;;;;;;0.80;0.80;;;;;;;5.86;64.91;100436.88;111931;1192;94935;-77
2021/11/07 05:36:19;;;;;;;0.70;0.70;;;;;;;5.90;64.83;100440.92;111877;1192;137797;-77
2021/11/07 05:38:47;;;;;;;0.70;0.70;;;;;;;5.87;64.82;100437.58;111619;1194;108438;-76
2021/11/07 05:41:15;;;;;;;0.80;0.80;;;;;;;5.80;64.78;100441.50;111749;1193;108455;-77
2021/11/07 05:43:43;;;;;;;0.70;0.70;;;;;;;5.74;65.10;100444.53;111917;1192;138253;-77
2021/11/07 05:46:11;;;;;;;0.70;0.70;;;;;;;5.70;65.29;100443.85;111954;1192;95359;-77
2021/11/07 05:48:39;;;;;;;0.80;0.80;;;;;;;5.72;65.28;100442.27;111683;1193;138095;-77
2021/11/07 05:51:07;;;;;;;0.70;0.70;;;;;;;5.73;65.18;100438.20;111831;1192;108953;-77
2021/11/07 05:53:35;;;;;;;0.70;0.70;;;;;;;5.68;65.38;100435.75;111808;1192;139285;-77
2021/11/07 05:56:03;;;;;;;0.70;0.70;;;;;;;5.70;65.39;100430.81;111650;1192;94981;-76
2021/11/07 05:58:31;;;;;;;0.70;0.70;;;;;;;5.73;65.31;100428.69;111822;1193;108594;-76
2021/11/07 06:00:59;;;;;;;0.70;0.70;;;;;;;5.70;65.51;100422.89;111820;1192;138116;-76
2021/11/07 06:03:27;;;;;;;0.70;0.70;;;;;;;5.70;65.68;100422.71;111737;1193;94913;-77
2021/11/07 06:05:54;;;;;;;0.70;0.70;;;;;;;5.72;65.54;100413.71;111847;1192;138533;-77
2021/11/07 06:08:22;;;;;;;0.60;0.60;;;;;;;5.75;65.55;100412.47;111871;1193;107739;-76
2021/11/07 06:10:50;;;;;;;0.70;0.70;;;;;;;5.77;65.59;100402.77;111999;1192;108479;-76
2021/11/07 06:13:18;;;;;;;0.70;0.70;;;;;;;5.81;65.38;100404.14;111963;1192;138958;-78
2021/11/07 06:15:46;;;;;;;0.70;0.70;;;;;;;5.84;65.48;100403.77;111724;1195;95004;-77
2021/11/07 06:18:14;;;;;;;0.70;0.70;;;;;;;5.89;65.39;100406.03;111834;1192;138579;-76
2021/11/07 06:20:42;;;;;;;0.70;0.70;;;;;;;5.90;65.49;100400.73;111895;1193;108498;-77
2021/11/07 06:23:11;;;;;;;0.70;0.70;;;;;;;5.94;65.42;100398.23;111904;1192;95392;-77
2021/11/07 06:25:39;;;;;;;0.70;0.70;;;;;;;6.00;65.27;100393.46;111807;1192;138210;-77
2021/11/07 06:28:08;;;;;;;0.70;0.70;;;;;;;6.14;65.00;100387.89;111840;1192;106962;-78
2021/11/07 06:30:36;;;;;;;0.70;0.70;;;;;;;6.16;65.06;100379.23;111749;1192;139067;-77
2021/11/07 06:33:03;;;;;;;0.70;0.70;;;;;;;6.17;65.08;100382.93;111710;1192;96153;-77
2021/11/07 06:35:31;;;;;;;0.70;0.70;;;;;;;6.23;64.96;100385.53;111596;1193;138079;-77
2021/11/07 06:38:00;;;;;;;0.70;0.70;;;;;;;6.31;64.66;100378.58;111662;1194;106604;-77
2021/11/07 06:40:28;;;;;;;0.60;0.60;;;;;;;6.43;64.61;100371.95;111687;1193;108459;-76
2021/11/07 06:42:56;;;;;;;0.60;0.60;;;;;;;6.48;64.45;100369.42;111957;1192;137823;-79
2021/11/07 06:45:24;;;;;;;0.70;0.70;;;;;;;6.56;64.35;100370.05;112023;1192;94882;-77
2021/11/07 06:47:51;;;;;;;0.60;0.60;;;;;;;6.65;64.21;100367.31;111792;1193;138968;-77
2021/11/07 06:50:20;;;;;;;0.60;0.60;;;;;;;6.74;64.06;100370.56;111742;1192;109505;-76
2021/11/07 06:52:48;;;;;;;0.60;0.60;;;;;;;6.81;63.73;100368.19;111754;1195;96099;-77
2021/11/07 06:55:17;;;;;;;0.60;0.60;;;;;;;6.91;63.38;100366.86;111673;1194;136406;-77
2021/11/07 06:57:46;;;;;;;0.60;0.60;;;;;;;6.98;63.18;100365.70;112037;1192;107486;-77
2021/11/07 07:00:18;;;;;;;0.60;0.60;;;;;;;7.07;62.68;100359.77;111923;1192;138618;-77
2021/11/07 07:02:46;;;;;;;0.60;0.60;;;;;;;7.16;62.38;100355.05;112065;1193;94889;-77
2021/11/07 07:05:17;;;;;;;0.50;0.50;;;;;;;7.28;62.36;100351.38;111695;1192;95333;-76
2021/11/07 07:07:49;;;;;;;0.50;0.50;;;;;;;7.37;61.85;100342.08;111980;1192;139936;-76
2021/11/07 07:13:19;;;;;;;0.50;0.50;;;;;;;7.58;60.89;100333.11;111869;1192;138073;-76
2021/11/07 07:15:48;;;;;;;0.70;0.70;;;;;;;7.72;60.79;100325.99;112151;1192;94930;-76
2021/11/07 07:18:31;;;;;;;0.50;0.50;;;;;;;7.82;60.20;100317.54;111775;1193;138828;-76
2021/11/07 07:21:09;;;;;;;0.50;0.50;;;;;;;8.01;59.92;100312.27;111967;1192;109984;-76
2021/11/07 07:24:10;;;;;;;0.50;0.50;;;;;;;8.13;59.25;100311.52;111628;1194;137649;-76
2021/11/07 07:34:27;;;;;;;0.50;0.50;;;;;;;7.99;58.96;100292.86;112037;1192;94894;-77
2021/11/07 07:36:56;;;;;;;0.60;0.60;;;;;;;7.99;58.90;100289.14;111815;1193;137902;-77
2021/11/07 07:39:24;;;;;;;0.50;0.50;;;;;;;7.95;58.90;100282.66;111754;1193;107538;-75
2021/11/07 07:41:52;;;;;;;0.50;0.50;;;;;;;7.93;59.27;100276.70;111875;1192;138158;-76
2021/11/07 07:44:21;;;;;;;0.50;0.50;;;;;;;7.97;58.97;100272.02;112089;1192;94896;-77
2021/11/07 07:46:49;;;;;;;0.50;0.50;;;;;;;7.95;58.91;100274.00;111987;1192;95429;-76
2021/11/07 07:49:19;;;;;;;0.60;0.60;;;;;;;7.92;58.93;100268.95;111930;1192;138782;-77
2021/11/07 07:51:47;;;;;;;0.50;0.50;;;;;;;7.92;59.06;100260.80;112085;1192;108681;-75
2021/11/07 07:54:15;;;;;;;0.50;0.50;;;;;;;7.95;59.07;100257.38;111954;1192;137934;-76
2021/11/07 07:56:43;;;;;;;0.60;0.60;;;;;;;7.97;58.64;100253.81;112082;1192;94900;-76
2021/11/07 07:59:10;;;;;;;0.60;0.60;;;;;;;7.97;58.62;100254.88;112038;1192;109219;-76
2021/11/07 08:01:38;;;;;;;0.60;0.60;;;;;;;8.01;58.60;100252.32;111650;1195;139068;-75
2021/11/07 08:04:06;;;;;;;0.50;0.50;;;;;;;8.05;58.55;100249.07;112153;1193;94875;-76
2021/11/07 08:06:34;;;;;;;0.50;0.50;;;;;;;8.05;58.41;100248.73;111567;1193;137817;-77
2021/11/07 08:09:02;;;;;;;0.50;0.50;;;;;;;8.04;58.39;100248.90;111720;1193;107641;-76
2021/11/07 08:11:30;;;;;;;0.50;0.50;;;;;;;8.08;58.26;100246.55;111722;1193;138399;-76
2021/11/07 08:13:57;;;;;;;0.50;0.50;;;;;;;8.15;58.10;100241.27;112095;1192;96366;-77
2021/11/07 08:16:26;;;;;;;0.50;0.50;;;;;;;8.27;57.66;100239.64;111994;1192;94947;-75
2021/11/07 08:18:55;;;;;;;0.50;0.50;;;;;;;8.40;57.42;100234.60;111833;1193;137969;-77
2021/11/07 08:21:26;;;;;;;0.50;0.50;;;;;;;8.52;57.13;100231.91;111684;1196;108828;-76
2021/11/07 08:23:54;;;;;;;0.50;0.50;;;;;;;8.61;56.89;100232.29;111692;1193;138104;-77
2021/11/07 08:26:22;;;;;;;0.50;0.50;;;;;;;8.68;56.83;100220.98;112010;1193;94832;-76
2021/11/07 08:28:52;;;;;;;0.60;0.60;;;;;;;8.69;56.57;100210.86;112097;1192;108478;-77
2021/11/07 08:31:25;;;;;;;0.50;0.40;;;;;;;8.76;56.61;100208.59;112365;1192;138468;-75
2021/11/07 08:33:53;;;;;;;0.50;0.40;;;;;;;8.76;56.14;100201.34;111989;1192;94867;-76
2021/11/07 08:36:26;;;;;;;0.50;0.50;;;;;;;8.70;56.17;100199.35;111696;1193;136808;-76
2021/11/07 08:39:04;;;;;;;0.50;0.50;;;;;;;8.67;56.16;100193.73;111934;1200;108163;-75
2021/11/07 08:41:33;;;;;;;0.50;0.40;;;;;;;8.72;56.08;100183.71;111671;1196;138012;-76
2021/11/07 09:01:35;;;;;;;0.50;0.50;;;;;;;8.90;55.52;100158.36;111641;1193;137388;-76
2021/11/07 09:09:28;;;;;;;0.50;0.50;;;;;;;8.97;55.58;100141.36;112137;1193;94903;-77
2021/11/07 09:11:59;;;;;;;0.50;0.50;;;;;;;9.01;55.23;100130.83;112266;1192;138110;-77
2021/11/07 09:14:34;;;;;;;0.50;0.50;;;;;;;9.03;55.29;100126.17;111687;1193;107359;-76
2021/11/07 09:17:13;;;;;;;0.50;0.50;;;;;;;9.06;55.53;100122.39;112059;1192;96835;-76
2021/11/07 09:19:43;;;;;;;0.50;0.50;;;;;;;9.09;55.44;100123.03;111902;1192;138411;-77
2021/11/07 09:22:16;;;;;;;0.50;0.40;;;;;;;9.15;55.65;100129.41;112087;1193;107403;-75
2021/11/07 09:24:56;;;;;;;0.50;0.40;;;;;;;9.16;55.66;100126.21;111877;1193;138194;-74
2021/11/07 09:27:31;;;;;;;0.50;0.50;;;;;;;9.16;55.69;100127.09;113335;1192;95299;-76
2021/11/07 09:30:13;;;;;;;0.50;0.50;;;;;;;9.22;55.79;100113.33;112077;1193;137905;-75
2021/11/07 09:32:48;;;;;;;0.50;0.50;;;;;;;9.23;55.47;100104.43;111866;1192;107498;-76
2021/11/07 09:35:25;;;;;;;0.50;0.50;;;;;;;9.27;55.49;100098.66;111981;1192;109457;-75
2021/11/07 09:40:24;;;;;;;0.50;0.50;;;;;;;9.35;54.49;100088.35;111966;1192;94862;-76
2021/11/07 09:43:08;;;;;;;0.50;0.50;;;;;;;9.49;54.15;100089.22;111602;1194;137695;-76
2021/11/07 09:50:48;;;;;;;0.40;0.40;;;;;;;9.82;53.06;100079.09;111845;1193;95152;-77
2021/11/07 09:53:16;;;;;;;0.50;0.40;;;;;;;9.87;52.91;100073.80;111760;1193;108524;-76
2021/11/07 09:55:45;;;;;;;0.50;0.40;;;;;;;9.88;52.33;100060.48;111961;1192;138108;-77
2021/11/07 09:58:14;;;;;;;0.40;0.40;;;;;;;9.92;52.29;100055.93;111830;1193;94887;-77
2021/11/07 10:00:46;;;;;;;0.50;0.40;;;;;;;9.98;52.30;100054.70;113054;1193;137441;-76
2021/11/07 10:03:16;;;;;;;0.50;0.40;;;;;;;10.00;51.57;100042.91;112009;1193;107185;-75
2021/11/07 10:05:48;;;;;;;0.40;0.40;;;;;;;9.95;51.38;100039.38;111784;1193;138568;-75
2021/11/07 10:08:16;;;;;;;0.40;0.40;;;;;;;9.92;51.66;100037.50;113120;1192;94816;-77
2021/11/07 10:10:59;;;;;;;0.50;0.40;;;;;;;9.94;51.67;100039.40;111704;1193;95258;-75
2021/11/07 10:13:28;;;;;;;0.40;0.40;;;;;;;9.88;50.93;100032.98;111996;1193;139001;-77
2021/11/07 10:16:03;;;;;;;0.50;0.40;;;;;;;9.93;51.49;100034.80;111704;1193;109453;-76
2021/11/07 10:18:59;;;;;;;0.50;0.40;;;;;;;10.03;51.37;100024.74;111823;1192;137480;-76
2021/11/07 10:21:33;;;;;;;0.50;0.40;;;;;;;10.18;51.31;100015.78;112116;1193;94797;-77
2021/11/07 10:24:14;;;;;;;0.40;0.40;;;;;;;10.31;50.82;100010.61;111739;1193;137965;-77
2021/11/07 10:26:45;;;;;;;0.40;0.30;;;;;;;10.91;50.05;100006.52;112145;1192;108299;-76
2021/11/07 10:29:40;;;;;;;0.40;0.30;;;;;;;11.05;48.73;99992.73;111886;1193;94993;-75
2021/11/07 10:32:20;;;;;;;0.40;0.30;;;;;;;10.83;49.53;99991.70;112042;1193;137525;-76
2021/11/07 10:40:35;;;;;;;0.40;0.40;;;;;;;10.49;50.11;99983.27;112040;1193;94799;-77
2021/11/07 10:54:21;;;;;;;0.40;0.30;;;;;;;10.41;50.99;99949.44;111948;1193;138176;-77
2021/11/07 10:57:15;;;;;;;0.40;0.40;;;;;;;10.45;50.70;99943.64;111940;1193;107522;-77
2021/11/07 11:00:13;;;;;;;0.40;0.40;;;;;;;10.46;50.68;99938.45;112146;1193;108656;-77
2021/11/07 11:02:50;;;;;;;0.40;0.30;;;;;;;10.44;50.83;99928.40;111706;1193;95111;-77
2021/11/07 11:05:19;;;;;;;0.40;0.30;;;;;;;10.42;50.65;99924.39;112096;1193;94918;-77
2021/11/07 11:07:54;;;;;;;0.40;0.30;;;;;;;10.44;50.87;99926.61;113264;1193;138052;-75
2021/11/07 11:10:29;;;;;;;0.40;0.30;;;;;;;10.47;50.20;99928.47;111711;1193;111010;-75
2021/11/07 11:13:13;;;;;;;0.40;0.30;;;;;;;10.49;50.43;99925.20;111934;1193;138212;-75
2021/11/07 11:15:52;;;;;;;0.40;0.30;;;;;;;10.56;50.01;99920.55;112266;1193;95244;-76
2021/11/07 11:21:26;;;;;;;0.40;0.40;;;;;;;10.60;49.69;99912.40;111979;1192;109887;-76
2021/11/07 11:24:24;;;;;;;0.40;0.40;;;;;;;10.70;49.60;99912.43;111789;1196;94925;-75
2021/11/07 11:27:06;;;;;;;0.40;0.40;;;;;;;10.69;49.33;99911.21;111959;1192;137702;-75
2021/11/07 11:34:40;;;;;;;0.40;0.30;;;;;;;10.62;49.54;99902.60;111785;1193;95409;-77
2021/11/07 11:37:16;;;;;;;0.40;0.30;;;;;;;10.64;49.97;99897.17;111715;1193;138307;-75
2021/11/07 11:39:52;;;;;;;0.50;0.30;;;;;;;10.69;49.91;99896.14;112099;1193;107505;-75
2021/11/07 11:42:33;;;;;;;0.40;0.30;;;;;;;10.70;50.07;99887.02;111699;1193;107078;-74
2021/11/07 11:45:03;;;;;;;0.40;0.40;;;;;;;10.71;49.74;99882.02;112004;1193;139539;-76
2021/11/07 11:48:10;;;;;;;0.40;0.40;;;;;;;10.74;49.94;99867.38;112211;1193;95389;-76
2021/11/07 11:56:32;;;;;;;0.40;0.30;;;;;;;10.62;49.98;99851.09;111883;1193;138208;-78
2021/11/07 11:59:05;;;;;;;0.40;0.30;;;;;;;10.58;50.12;99847.89;112202;1192;94812;-76
2021/11/07 12:01:46;;;;;;;0.40;0.30;;;;;;;10.58;50.56;99849.11;111860;1193;137547;-76
2021/11/07 12:04:26;;;;;;;0.40;0.30;;;;;;;10.59;50.60;99839.33;112055;1193;107726;-75
2021/11/07 12:07:10;;;;;;;0.40;0.30;;;;;;;10.54;50.70;99846.22;111922;1192;138385;-76
2021/11/07 12:10:02;;;;;;;0.40;0.30;;;;;;;10.54;50.89;99850.30;112201;1192;95975;-77
2021/11/07 12:12:49;;;;;;;0.40;0.30;;;;;;;10.52;51.05;99843.09;112198;1192;108620;-78
2021/11/07 12:18:05;;;;;;;0.40;0.30;;;;;;;10.45;51.30;99830.02;112086;1193;94863;-76
2021/11/07 12:20:37;;;;;;;0.40;0.30;;;;;;;10.46;51.47;99831.79;111722;1193;137607;-75
2021/11/07 12:23:32;;;;;;;0.40;0.40;;;;;;;10.46;51.51;99831.61;112011;1193;108084;-75
2021/11/07 12:26:26;;;;;;;0.40;0.30;;;;;;;10.47;51.67;99825.73;111669;1193;137495;-77
2021/11/07 12:28:54;;;;;;;0.40;0.40;;;;;;;10.46;51.67;99817.94;112157;1193;95448;-77
2021/11/07 12:31:25;;;;;;;0.40;0.40;;;;;;;10.51;52.09;99814.89;112022;1193;138883;-76
2021/11/07 12:34:04;;;;;;;0.50;0.50;;;;;;;10.54;51.56;99811.98;111843;1193;108555;-76
2021/11/07 12:42:29;;;;;;;0.40;0.30;;;;;;;10.52;52.20;99806.37;112226;1192;95394;-75
2021/11/07 12:45:27;;;;;;;0.40;0.30;;;;;;;10.51;51.79;99807.29;111887;1192;137547;-76
2021/11/07 12:48:02;;;;;;;0.40;0.30;;;;;;;10.50;52.07;99808.36;112059;1192;109585;-75
2021/11/07 12:50:50;;;;;;;0.40;0.40;;;;;;;10.51;51.95;99804.45;111877;1193;139104;-76
2021/11/07 12:53:18;;;;;;;0.40;0.40;;;;;;;10.51;52.09;99804.63;112545;1192;94908;-76
2021/11/07 12:55:45;;;;;;;0.40;0.30;;;;;;;10.52;52.25;99798.88;111748;1192;139396;-76
2021/11/07 12:58:14;;;;;;;0.40;0.30;;;;;;;10.58;52.24;99799.06;111738;1193;108495;-76
2021/11/07 13:00:43;;;;;;;0.50;0.40;;;;;;;10.61;51.86;99797.71;111976;1193;95104;-79
2021/11/07 13:03:13;;;;;;;0.40;0.30;;;;;;;10.55;51.71;99787.80;111858;1193;139471;-76
2021/11/07 13:05:43;;;;;;;0.40;0.40;;;;;;;10.49;51.52;99787.13;113512;1192;107513;-77
2021/11/07 13:13:37;;;;;;;0.40;0.30;;;;;;;10.48;51.50;99793.90;111899;1194;137576;-75
2021/11/07 13:19:15;;;;;;;0.40;0.40;;;;;;;10.45;51.50;99787.27;112041;1194;109616;-77
2021/11/07 13:35:03;;;;;;;0.40;0.40;;;;;;;10.45;51.33;99784.07;112200;1193;94863;-76
2021/11/07 13:37:39;;;;;;;0.40;0.40;;;;;;;10.41;51.51;99783.35;112104;1192;137512;-77
2021/11/07 13:40:10;;;;;;;0.40;0.30;;;;;;;10.42;51.62;99783.85;112212;1192;109244;-77